CPA565 RJBB-RCTP
Flight info
| Callsign | CPA565 |
|---|---|
| Flight time | N/A |
| Altitude | 38000 |
| Route | OMGOR Y34 HKC Y50 IGMON A1 DRAKE DRAKE1A |
| Aircraft | B772/H-SDE2E3FGHIJ5LORVWXY/LB1D1 |
Departure
| Time | 2026-04-29 10:05 |
|---|---|
| Airport | Kansai International Airport (RJBB) |
Arrival
| Time | N/A |
|---|---|
| Airport | Taiwan Taoyuan International Airport (RCTP) |
| Time | Latitude | Longitude | Altitude | Speed | Heading |
|---|---|---|---|---|---|
| 2026-04-29 09:30 | 34.43307 | 135.24436 | 23 ft | 0 kts | 321° |
| 2026-04-29 09:43 | 34.43318 | 135.24425 | 26 ft | 0 kts | 321° |
| 2026-04-29 09:44 | 34.43307 | 135.24436 | 23 ft | 0 kts | 321° |
| 2026-04-29 09:46 | 34.43306 | 135.24437 | 23 ft | 2 kts | 321° |
| 2026-04-29 09:47 | 34.43286 | 135.24457 | 27 ft | 4 kts | 321° |
| 2026-04-29 09:47 | 34.43268 | 135.24475 | 28 ft | 4 kts | 316° |
| 2026-04-29 09:47 | 34.43253 | 135.24500 | 27 ft | 4 kts | 277° |
| 2026-04-29 09:47 | 34.43257 | 135.24529 | 28 ft | 4 kts | 240° |
| 2026-04-29 09:48 | 34.43273 | 135.24555 | 27 ft | 4 kts | 226° |
| 2026-04-29 09:48 | 34.43292 | 135.24578 | 25 ft | 4 kts | 227° |
| 2026-04-29 09:48 | 34.43297 | 135.24585 | 25 ft | 0 kts | 231° |
| 2026-04-29 09:52 | 34.43282 | 135.24562 | 23 ft | 6 kts | 231° |
| 2026-04-29 09:53 | 34.43256 | 135.24524 | 25 ft | 6 kts | 231° |
| 2026-04-29 09:53 | 34.43230 | 135.24485 | 26 ft | 6 kts | 231° |
| 2026-04-29 09:53 | 34.43204 | 135.24446 | 25 ft | 7 kts | 231° |
| 2026-04-29 09:53 | 34.43153 | 135.24426 | 26 ft | 9 kts | 172° |
| 2026-04-29 09:54 | 34.43074 | 135.24394 | 25 ft | 17 kts | 224° |
| 2026-04-29 09:54 | 34.42986 | 135.24267 | 24 ft | 20 kts | 231° |
| 2026-04-29 09:54 | 34.42897 | 135.24135 | 26 ft | 20 kts | 231° |
| 2026-04-29 09:54 | 34.42808 | 135.24001 | 24 ft | 20 kts | 231° |
| 2026-04-29 09:55 | 34.42719 | 135.23867 | 26 ft | 20 kts | 231° |
| 2026-04-29 09:55 | 34.42629 | 135.23733 | 27 ft | 20 kts | 230° |
| 2026-04-29 09:55 | 34.42573 | 135.23629 | 27 ft | 13 kts | 262° |
| 2026-04-29 09:55 | 34.42622 | 135.23548 | 25 ft | 13 kts | 324° |
| 2026-04-29 09:56 | 34.42695 | 135.23484 | 28 ft | 13 kts | 324° |
| 2026-04-29 09:56 | 34.42763 | 135.23417 | 27 ft | 13 kts | 317° |
| 2026-04-29 09:56 | 34.42830 | 135.23346 | 27 ft | 13 kts | 321° |
| 2026-04-29 09:56 | 34.42899 | 135.23279 | 26 ft | 13 kts | 321° |
| 2026-04-29 09:57 | 34.42969 | 135.23212 | 27 ft | 13 kts | 321° |
| 2026-04-29 09:57 | 34.43044 | 135.23136 | 27 ft | 17 kts | 321° |
| 2026-04-29 09:57 | 34.43138 | 135.23045 | 31 ft | 17 kts | 321° |
| 2026-04-29 09:57 | 34.43231 | 135.22954 | 32 ft | 17 kts | 321° |
| 2026-04-29 09:58 | 34.43326 | 135.22863 | 33 ft | 17 kts | 322° |
| 2026-04-29 09:58 | 34.43420 | 135.22773 | 33 ft | 17 kts | 320° |
| 2026-04-29 09:58 | 34.43511 | 135.22681 | 33 ft | 17 kts | 320° |
| 2026-04-29 09:58 | 34.43604 | 135.22589 | 33 ft | 17 kts | 321° |
| 2026-04-29 09:59 | 34.43698 | 135.22498 | 33 ft | 17 kts | 322° |
| 2026-04-29 09:59 | 34.43788 | 135.22402 | 33 ft | 17 kts | 304° |
| 2026-04-29 09:59 | 34.43759 | 135.22299 | 33 ft | 12 kts | 221° |
| 2026-04-29 09:59 | 34.43703 | 135.22223 | 33 ft | 12 kts | 230° |
| 2026-04-29 10:00 | 34.43649 | 135.22144 | 33 ft | 12 kts | 231° |
| 2026-04-29 10:00 | 34.43596 | 135.22066 | 33 ft | 12 kts | 231° |
| 2026-04-29 10:00 | 34.43533 | 135.21970 | 33 ft | 15 kts | 231° |
| 2026-04-29 10:00 | 34.43467 | 135.21871 | 33 ft | 15 kts | 231° |
| 2026-04-29 10:01 | 34.43401 | 135.21774 | 32 ft | 15 kts | 230° |
| 2026-04-29 10:01 | 34.43334 | 135.21676 | 33 ft | 15 kts | 230° |
| 2026-04-29 10:01 | 34.43267 | 135.21579 | 33 ft | 15 kts | 230° |
| 2026-04-29 10:01 | 34.43202 | 135.21480 | 33 ft | 15 kts | 232° |
| 2026-04-29 10:02 | 34.43137 | 135.21381 | 33 ft | 15 kts | 230° |
| 2026-04-29 10:02 | 34.43071 | 135.21284 | 33 ft | 15 kts | 231° |
| 2026-04-29 10:02 | 34.43005 | 135.21187 | 33 ft | 15 kts | 231° |
| 2026-04-29 10:02 | 34.42925 | 135.21069 | 33 ft | 19 kts | 231° |
| 2026-04-29 10:03 | 34.42841 | 135.20943 | 33 ft | 20 kts | 230° |
| 2026-04-29 10:03 | 34.42773 | 135.20843 | 33 ft | 10 kts | 231° |
| 2026-04-29 10:03 | 34.42750 | 135.20770 | 33 ft | 10 kts | 277° |
| 2026-04-29 10:03 | 34.42791 | 135.20707 | 30 ft | 10 kts | 321° |
| 2026-04-29 10:04 | 34.42853 | 135.20666 | 29 ft | 10 kts | 353° |
| 2026-04-29 10:04 | 34.42914 | 135.20704 | 29 ft | 10 kts | 51° |
| 2026-04-29 10:04 | 34.42971 | 135.20789 | 30 ft | 25 kts | 51° |
| 2026-04-29 10:04 | 34.43277 | 135.21245 | 36 ft | 117 kts | 51° |
| 2026-04-29 10:05 | 34.43940 | 135.22237 | 406 ft | 164 kts | 50° |
| 2026-04-29 10:05 | 34.44625 | 135.23226 | 1699 ft | 149 kts | 44° |
| 2026-04-29 10:05 | 34.45483 | 135.23986 | 2474 ft | 164 kts | 20° |
| 2026-04-29 10:05 | 34.46717 | 135.24043 | 2568 ft | 196 kts | 343° |
| 2026-04-29 10:06 | 34.47914 | 135.23173 | 2968 ft | 210 kts | 314° |
| 2026-04-29 10:06 | 34.48625 | 135.21551 | 3196 ft | 234 kts | 277° |
| 2026-04-29 10:06 | 34.48310 | 135.19565 | 3549 ft | 250 kts | 242° |
| 2026-04-29 10:06 | 34.47392 | 135.17759 | 4161 ft | 256 kts | 240° |
| 2026-04-29 10:07 | 34.46460 | 135.15902 | 4973 ft | 258 kts | 240° |
| 2026-04-29 10:07 | 34.45532 | 135.14072 | 5845 ft | 257 kts | 242° |
| 2026-04-29 10:07 | 34.44597 | 135.12243 | 6778 ft | 254 kts | 242° |
| 2026-04-29 10:07 | 34.43665 | 135.10425 | 7578 ft | 255 kts | 242° |
| 2026-04-29 10:08 | 34.42728 | 135.08598 | 8394 ft | 256 kts | 242° |
| 2026-04-29 10:08 | 34.41788 | 135.06764 | 8937 ft | 256 kts | 242° |
| 2026-04-29 10:08 | 34.40781 | 135.04999 | 9522 ft | 258 kts | 231° |
| 2026-04-29 10:08 | 34.39358 | 135.03592 | 10095 ft | 267 kts | 222° |
| 2026-04-29 10:09 | 34.37848 | 135.02187 | 10424 ft | 286 kts | 224° |
| 2026-04-29 10:09 | 34.36247 | 135.00642 | 10601 ft | 310 kts | 224° |
| 2026-04-29 10:09 | 34.34493 | 134.98946 | 10852 ft | 333 kts | 223° |
| 2026-04-29 10:09 | 34.32653 | 134.97174 | 11484 ft | 343 kts | 223° |
| 2026-04-29 10:10 | 34.30857 | 134.95283 | 12084 ft | 344 kts | 232° |
| 2026-04-29 10:10 | 34.29579 | 134.92874 | 12658 ft | 340 kts | 244° |
| 2026-04-29 10:10 | 34.28445 | 134.90302 | 13365 ft | 349 kts | 243° |
| 2026-04-29 10:10 | 34.27245 | 134.87753 | 14315 ft | 350 kts | 242° |
| 2026-04-29 10:11 | 34.26443 | 134.86064 | 14955 ft | 349 kts | 242° |
| 2026-04-29 10:11 | 34.25226 | 134.83523 | 15913 ft | 349 kts | 242° |
| 2026-04-29 10:11 | 34.23605 | 134.80151 | 16990 ft | 353 kts | 242° |
| 2026-04-29 10:11 | 34.22369 | 134.77551 | 17710 ft | 360 kts | 242° |
| 2026-04-29 10:12 | 34.21117 | 134.74921 | 18555 ft | 359 kts | 242° |
| 2026-04-29 10:12 | 34.19872 | 134.72360 | 19708 ft | 350 kts | 240° |
| 2026-04-29 10:12 | 34.18529 | 134.69913 | 20540 ft | 350 kts | 238° |
| 2026-04-29 10:12 | 34.17132 | 134.67474 | 21170 ft | 356 kts | 238° |
| 2026-04-29 10:13 | 34.16199 | 134.65837 | 21551 ft | 359 kts | 239° |
| 2026-04-29 10:13 | 34.14772 | 134.63329 | 22175 ft | 364 kts | 239° |
| 2026-04-29 10:13 | 34.13329 | 134.60808 | 22859 ft | 367 kts | 238° |
| 2026-04-29 10:13 | 34.11869 | 134.58265 | 23599 ft | 369 kts | 239° |
| 2026-04-29 10:14 | 34.09924 | 134.54872 | 24352 ft | 373 kts | 239° |
| 2026-04-29 10:14 | 34.08924 | 134.53127 | 24728 ft | 375 kts | 239° |
| 2026-04-29 10:14 | 34.07457 | 134.50569 | 25276 ft | 377 kts | 239° |
| 2026-04-29 10:14 | 34.05453 | 134.47071 | 25991 ft | 381 kts | 239° |
| 2026-04-29 10:15 | 34.04453 | 134.45329 | 26325 ft | 382 kts | 239° |
| 2026-04-29 10:15 | 34.02933 | 134.42681 | 26792 ft | 386 kts | 239° |
| 2026-04-29 10:15 | 34.01395 | 134.40013 | 27267 ft | 389 kts | 238° |
| 2026-04-29 10:15 | 33.99337 | 134.36448 | 27855 ft | 392 kts | 238° |
| 2026-04-29 10:16 | 33.98289 | 134.34624 | 28197 ft | 394 kts | 238° |
| 2026-04-29 10:16 | 33.96717 | 134.31893 | 28612 ft | 398 kts | 238° |
| 2026-04-29 10:16 | 33.95135 | 134.29152 | 29084 ft | 399 kts | 238° |
| 2026-04-29 10:16 | 33.93568 | 134.26440 | 29535 ft | 401 kts | 238° |
| 2026-04-29 10:17 | 33.91971 | 134.23679 | 29925 ft | 403 kts | 238° |
| 2026-04-29 10:17 | 33.90350 | 134.20905 | 30270 ft | 406 kts | 238° |
| 2026-04-29 10:17 | 33.88710 | 134.18125 | 30530 ft | 410 kts | 238° |
| 2026-04-29 10:17 | 33.87051 | 134.15320 | 30844 ft | 412 kts | 238° |
| 2026-04-29 10:18 | 33.85384 | 134.12504 | 31152 ft | 413 kts | 238° |
| 2026-04-29 10:18 | 33.83716 | 134.09686 | 31447 ft | 415 kts | 238° |
| 2026-04-29 10:18 | 33.82039 | 134.06853 | 31687 ft | 417 kts | 238° |
| 2026-04-29 10:18 | 33.80353 | 134.04004 | 31921 ft | 419 kts | 238° |
| 2026-04-29 10:19 | 33.78688 | 134.01192 | 32256 ft | 418 kts | 238° |
| 2026-04-29 10:19 | 33.77004 | 133.98350 | 32613 ft | 416 kts | 238° |
| 2026-04-29 10:19 | 33.75329 | 133.95526 | 33012 ft | 415 kts | 238° |
| 2026-04-29 10:19 | 33.73654 | 133.92706 | 33350 ft | 414 kts | 238° |
| 2026-04-29 10:20 | 33.71982 | 133.89891 | 33652 ft | 414 kts | 238° |
| 2026-04-29 10:20 | 33.70313 | 133.87079 | 33992 ft | 413 kts | 238° |
| 2026-04-29 10:20 | 33.68646 | 133.84272 | 34325 ft | 412 kts | 238° |
| 2026-04-29 10:20 | 33.66981 | 133.81474 | 34648 ft | 411 kts | 238° |
| 2026-04-29 10:21 | 33.65342 | 133.78724 | 34947 ft | 410 kts | 239° |
| 2026-04-29 10:21 | 33.63680 | 133.75936 | 35262 ft | 410 kts | 239° |
| 2026-04-29 10:21 | 33.62024 | 133.73165 | 35561 ft | 409 kts | 239° |
| 2026-04-29 10:21 | 33.60360 | 133.70387 | 35765 ft | 410 kts | 239° |
| 2026-04-29 10:22 | 33.58691 | 133.67601 | 36001 ft | 411 kts | 239° |
| 2026-04-29 10:22 | 33.57027 | 133.64827 | 36309 ft | 410 kts | 239° |
| 2026-04-29 10:22 | 33.55361 | 133.62053 | 36657 ft | 409 kts | 239° |
| 2026-04-29 10:22 | 33.53703 | 133.59293 | 36942 ft | 408 kts | 240° |
| 2026-04-29 10:23 | 33.52045 | 133.56532 | 37203 ft | 408 kts | 240° |
| 2026-04-29 10:23 | 33.50392 | 133.53781 | 37457 ft | 408 kts | 240° |
| 2026-04-29 10:23 | 33.48754 | 133.51056 | 37702 ft | 408 kts | 240° |
| 2026-04-29 10:23 | 33.47199 | 133.48231 | 37946 ft | 405 kts | 245° |
| 2026-04-29 10:24 | 33.44591 | 133.42256 | 38091 ft | 407 kts | 248° |
| 2026-04-29 10:24 | 33.41946 | 133.36207 | 38070 ft | 413 kts | 248° |
| 2026-04-29 10:25 | 33.39256 | 133.30103 | 38064 ft | 416 kts | 247° |
| 2026-04-29 10:25 | 33.36558 | 133.24004 | 38089 ft | 418 kts | 247° |
| 2026-04-29 10:26 | 33.33823 | 133.17830 | 38086 ft | 421 kts | 247° |
| 2026-04-29 10:26 | 33.31079 | 133.11644 | 38072 ft | 422 kts | 247° |
| 2026-04-29 10:27 | 33.26958 | 133.02377 | 38072 ft | 424 kts | 247° |
| 2026-04-29 10:28 | 33.24187 | 132.96159 | 38078 ft | 424 kts | 247° |
| 2026-04-29 10:28 | 33.21414 | 132.89948 | 38070 ft | 424 kts | 247° |
| 2026-04-29 10:29 | 33.18637 | 132.83736 | 38056 ft | 424 kts | 246° |
| 2026-04-29 10:29 | 33.15876 | 132.77569 | 38066 ft | 424 kts | 246° |
| 2026-04-29 10:30 | 33.13092 | 132.71362 | 38065 ft | 424 kts | 246° |
| 2026-04-29 10:30 | 33.10305 | 132.65163 | 38055 ft | 424 kts | 246° |
| 2026-04-29 10:31 | 33.07508 | 132.58949 | 38081 ft | 425 kts | 246° |
| 2026-04-29 10:31 | 33.04709 | 132.52740 | 38081 ft | 425 kts | 246° |
| 2026-04-29 10:32 | 33.01923 | 132.46570 | 38078 ft | 426 kts | 246° |
| 2026-04-29 10:32 | 32.99105 | 132.40377 | 38081 ft | 426 kts | 244° |
| 2026-04-29 10:33 | 32.95710 | 132.34526 | 38076 ft | 433 kts | 236° |
| 2026-04-29 10:33 | 32.91827 | 132.29030 | 38078 ft | 434 kts | 236° |
| 2026-04-29 10:34 | 32.87985 | 132.23555 | 38087 ft | 434 kts | 236° |
| 2026-04-29 10:34 | 32.84123 | 132.18037 | 38090 ft | 434 kts | 236° |
| 2026-04-29 10:35 | 32.80257 | 132.12517 | 38082 ft | 434 kts | 236° |
| 2026-04-29 10:35 | 32.76390 | 132.07003 | 38089 ft | 435 kts | 236° |
| 2026-04-29 10:36 | 32.72542 | 132.01526 | 38078 ft | 435 kts | 236° |
| 2026-04-29 10:36 | 32.68662 | 131.96010 | 38097 ft | 436 kts | 236° |
| 2026-04-29 10:37 | 32.64773 | 131.90489 | 38092 ft | 436 kts | 236° |
| 2026-04-29 10:37 | 32.60875 | 131.84964 | 38082 ft | 437 kts | 235° |
| 2026-04-29 10:38 | 32.56971 | 131.79441 | 38084 ft | 437 kts | 235° |
| 2026-04-29 10:38 | 32.53079 | 131.73955 | 38094 ft | 438 kts | 235° |
| 2026-04-29 10:39 | 32.49158 | 131.68434 | 38079 ft | 438 kts | 235° |
| 2026-04-29 10:39 | 32.45232 | 131.62913 | 38082 ft | 438 kts | 235° |
| 2026-04-29 10:40 | 32.41300 | 131.57390 | 38083 ft | 439 kts | 235° |
| 2026-04-29 10:40 | 32.37393 | 131.51908 | 38101 ft | 439 kts | 235° |
| 2026-04-29 10:41 | 32.33446 | 131.46382 | 38078 ft | 439 kts | 235° |
| 2026-04-29 10:41 | 32.29501 | 131.40866 | 38090 ft | 440 kts | 235° |
| 2026-04-29 10:42 | 32.25553 | 131.35351 | 38070 ft | 439 kts | 235° |
| 2026-04-29 10:42 | 32.21604 | 131.29847 | 38089 ft | 439 kts | 234° |
| 2026-04-29 10:43 | 32.17675 | 131.24376 | 38077 ft | 440 kts | 234° |
| 2026-04-29 10:43 | 32.13725 | 131.18879 | 38095 ft | 438 kts | 234° |
| 2026-04-29 10:44 | 32.09773 | 131.13394 | 38060 ft | 439 kts | 234° |
| 2026-04-29 10:44 | 32.05840 | 131.07945 | 38080 ft | 439 kts | 234° |
| 2026-04-29 10:45 | 32.01888 | 131.02469 | 38080 ft | 438 kts | 234° |
| 2026-04-29 10:45 | 31.97926 | 130.97007 | 38073 ft | 438 kts | 234° |
| 2026-04-29 10:46 | 31.93965 | 130.91556 | 38053 ft | 438 kts | 234° |
| 2026-04-29 10:46 | 31.90008 | 130.86116 | 38072 ft | 438 kts | 234° |
| 2026-04-29 10:47 | 31.86064 | 130.80697 | 38046 ft | 439 kts | 234° |
| 2026-04-29 10:47 | 31.82088 | 130.75245 | 38038 ft | 439 kts | 234° |
| 2026-04-29 10:48 | 31.78103 | 130.69787 | 38048 ft | 440 kts | 234° |
| 2026-04-29 10:48 | 31.74112 | 130.64327 | 38045 ft | 441 kts | 234° |
| 2026-04-29 10:49 | 31.70141 | 130.58902 | 38042 ft | 441 kts | 234° |
| 2026-04-29 10:49 | 31.66353 | 130.53264 | 38063 ft | 439 kts | 236° |